Terminal Aerodrome Forecast
Issued by NWS Quad Cities IA IL

Home | Current Version | Previous Version | Text Only | Print | Product List | Glossary On
Versions: 1 2 3 4 5 6 7 8 9 10 11 12 13 14 15 16
000
FTUS43 KDVN 152031 AAA
TAFDBQ
TAF AMD
KDBQ 152031Z 1521/1618 32015KT P6SM OVC035
     FM152300 31008KT P6SM SCT040
     FM160200 26005KT P6SM SKC=

USA.gov is the U.S. government's official web portal to all federal, state and local government web resources and services.